KAKH/AKH METAR and TAF weather

Enter ICAO airport designator
Station Type Date Time Source
KAKH METAR 2024/04/18 07:54 UTC NOAA

KAKH 180754Z AUTO 00000KT 10SM CLR 14/11 A3003 RMK AO2 SLP163 T01440106


Station Type Date Time Source
KAKH Decoded METAR 2024/04/18 07:54 UTC NOAA

GASTONIA MUNICIPAL AIRPORT, NC, United States (KAKH) 35-12N 81-09W 243M
Apr 18, 2024 - 03:54 AM EDT / 2024.04.18 0754 UTC
Wind: Calm:0
Visibility: 10 mile(s):0
Sky conditions: clear
Temperature: 57.9 F (14.4 C)
Dew Point: 51.1 F (10.6 C)
Relative Humidity: 77%
Pressure (altimeter): 30.03 in. Hg (1016 hPa)
ob: KAKH 180754Z AUTO 00000KT 10SM CLR 14/11 A3003 RMK AO2 SLP163 T01440106
cycle: 8

Station Type Date Time Source
KAKH TAF UTC NOAA

Error!

Example: see airport list